Susquehanna, Pennsylvania
Current Conditions -  °F | °C
As of 8:53 PM on Monday 22 Dec 2014 (Local Time) from KBGM Reporting Station
Haze Haze  
Wind Chill: 25°   Ceiling: 300
Heat Index: 33°   Visibility: 4mi
Dew Point: 33°   Wind: 9mph
Humidity: 100%   Direction: 150°SSE
Pressure: 30.11"   Gusts: NA
Location:  41.94°N, 75.6°W
Report Text: KBGM 230153Z 15008KT 4SM BR OVC003 01/01 A3011 RMK AO2 SLP213 T00060006
Loading
Personal Weather Stations






























Interactive Weather Map New forecast layout! Learn more

10-Day Weather Forecast

Advertisements
Track Severe Weather on mobile